Aérodrome :
LOGIN :

S'inscrire | Disclaimer

   EN    FR    IT 

 










Légende :    VFR   VFR Marginal   IFR   IFR Intensif   IFR Très Intensif
Visi : 
Plafond : 
>= 8 km
>= 3000ft
5 à 8 km
1000 à 3000 ft
1500m à 5 km
500 à 1000 ft
800 à 1500m
200 à 500 ft
< 800m
< 200 ft
Symboles :   Orages  Brouillard  Fortes neiges  Fortes précipitations  Vent > 20 kt
SIGMETs :   Divers  Orages  Givrage  Turbulence  Onde Orograph.  Cendres Volcan.






- Altitude de l'aérodrome : 1178 ft
- Code IATA : EVG


ESND - Sveg

DERNIER METAR :
  • 241620Z 25005KT CAVOK 00/M08 Q1000

METARs EXPIRÉS :
  • 241550Z 26005KT CAVOK 00/M08 Q1000
  • 241520Z 26003KT 9999 OVC053 00/M07 Q1000
  • 241450Z AUTO 26005KT 9999 BKN057/// 00/M07 Q1000
  • 241420Z AUTO 25006KT 210V270 9999 SCT046/// BKN062/// 01/M08 Q1000

TAF N/A



MET'MAP, la Météo Aéronautique d'un coup d'oeil ! - Copyright ORBIFLY Décembre 2007 - Disclaimer

ORBIFLY MET'MAP TEAM :

Programmation & Développement : Alexandra Zaïnal
Sur une idée originale de : Baudouin d'Aumeries
Assistance à la programmation : Marc-Olivier Méhu
Soutien technique & logistique : Manuel Goepfert

Contact : metmap@orbifly.com




SOURCES & CREDITS :

   NOAA